sensor_id;sensor_type;location;lat;lon;timestamp;pressure;altitude;pressure_sealevel;temperature;humidity
47154;BME280;32907;41.412;2.164;2023-05-19T00:02:20;100472.69;;;20.48;43.63
47154;BME280;32907;41.412;2.164;2023-05-19T00:04:50;100585.94;;;21.10;43.84
47154;BME280;32907;41.412;2.164;2023-05-19T00:07:26;100562.44;;;20.95;43.78
47154;BME280;32907;41.412;2.164;2023-05-19T00:10:00;100452.94;;;20.37;43.64
47154;BME280;32907;41.412;2.164;2023-05-19T00:12:28;100475.56;;;20.37;43.87
47154;BME280;32907;41.412;2.164;2023-05-19T00:14:59;100665.66;;;21.59;43.69
47154;BME280;32907;41.412;2.164;2023-05-19T00:17:28;100661.28;;;21.58;43.89
47154;BME280;32907;41.412;2.164;2023-05-19T00:19:57;100637.81;;;21.57;44.01
47154;BME280;32907;41.412;2.164;2023-05-19T00:22:27;100549.25;;;21.03;43.73
47154;BME280;32907;41.412;2.164;2023-05-19T00:24:55;100709.31;;;22.05;43.66
47154;BME280;32907;41.412;2.164;2023-05-19T00:27:26;100466.66;;;20.51;43.44
47154;BME280;32907;41.412;2.164;2023-05-19T00:30:00;100447.72;;;20.40;43.38
47154;BME280;32907;41.412;2.164;2023-05-19T00:32:28;100619.94;;;21.50;43.28
47154;BME280;32907;41.412;2.164;2023-05-19T00:34:58;100701.44;;;22.03;43.33
47154;BME280;32907;41.412;2.164;2023-05-19T00:37:29;100546.94;;;21.10;43.46
47154;BME280;32907;41.412;2.164;2023-05-19T00:39:58;100430.34;;;20.36;43.40
47154;BME280;32907;41.412;2.164;2023-05-19T00:42:27;100446.59;;;20.42;43.45
47154;BME280;32907;41.412;2.164;2023-05-19T00:44:55;100423.28;;;20.35;43.32
47154;BME280;32907;41.412;2.164;2023-05-19T00:47:25;100611.22;;;21.48;43.31
47154;BME280;32907;41.412;2.164;2023-05-19T00:49:54;100447.06;;;20.49;43.27
47154;BME280;32907;41.412;2.164;2023-05-19T00:52:22;100556.88;;;21.19;42.97
47154;BME280;32907;41.412;2.164;2023-05-19T00:54:58;100689.41;;;22.04;42.95
47154;BME280;32907;41.412;2.164;2023-05-19T00:57:30;100518.81;;;20.95;43.09
47154;BME280;32907;41.412;2.164;2023-05-19T00:59:59;100451.47;;;20.45;43.23
47154;BME280;32907;41.412;2.164;2023-05-19T01:02:28;100460.91;;;20.52;42.92
47154;BME280;32907;41.412;2.164;2023-05-19T01:04:57;100519.41;;;20.92;43.29
47154;BME280;32907;41.412;2.164;2023-05-19T01:07:28;100472.81;;;20.75;43.22
47154;BME280;32907;41.412;2.164;2023-05-19T01:09:57;100519.19;;;20.89;42.82
47154;BME280;32907;41.412;2.164;2023-05-19T01:12:26;100444.28;;;20.54;43.29
47154;BME280;32907;41.412;2.164;2023-05-19T01:14:58;100619.53;;;21.57;43.86
47154;BME280;32907;41.412;2.164;2023-05-19T01:17:47;100672.00;;;22.00;44.03
47154;BME280;32907;41.412;2.164;2023-05-19T01:20:35;100683.75;;;22.01;44.23
47154;BME280;32907;41.412;2.164;2023-05-19T01:26:40;100665.44;;;22.01;44.46
47154;BME280;32907;41.412;2.164;2023-05-19T01:29:28;100411.81;;;20.38;44.79
47154;BME280;32907;41.412;2.164;2023-05-19T01:32:06;100422.41;;;20.59;44.69
47154;BME280;32907;41.412;2.164;2023-05-19T01:34:42;100644.69;;;22.00;44.62
47154;BME280;32907;41.412;2.164;2023-05-19T01:37:15;100405.75;;;20.42;44.86
47154;BME280;32907;41.412;2.164;2023-05-19T01:39:46;100484.31;;;21.05;44.67
47154;BME280;32907;41.412;2.164;2023-05-19T01:42:20;100491.06;;;21.07;44.72
47154;BME280;32907;41.412;2.164;2023-05-19T01:44:50;100418.13;;;20.53;44.83
47154;BME280;32907;41.412;2.164;2023-05-19T01:47:19;100466.94;;;21.01;44.95
47154;BME280;32907;41.412;2.164;2023-05-19T01:49:47;100540.28;;;21.35;44.65
47154;BME280;32907;41.412;2.164;2023-05-19T01:52:15;100644.09;;;22.03;44.79
47154;BME280;32907;41.412;2.164;2023-05-19T01:54:43;100476.75;;;21.02;44.49
47154;BME280;32907;41.412;2.164;2023-05-19T02:00:34;100578.16;;;21.83;44.52
47154;BME280;32907;41.412;2.164;2023-05-19T02:06:04;100491.63;;;21.23;44.46
47154;BME280;32907;41.412;2.164;2023-05-19T02:11:44;100605.97;;;21.98;44.64
47154;BME280;32907;41.412;2.164;2023-05-19T02:14:18;100438.16;;;20.94;44.59
47154;BME280;32907;41.412;2.164;2023-05-19T02:16:48;100413.88;;;20.79;44.76
47154;BME280;32907;41.412;2.164;2023-05-19T02:19:26;100322.94;;;20.10;44.67
47154;BME280;32907;41.412;2.164;2023-05-19T02:21:57;100418.81;;;20.77;44.87
47154;BME280;32907;41.412;2.164;2023-05-19T02:24:26;100517.53;;;21.39;45.04
47154;BME280;32907;41.412;2.164;2023-05-19T02:26:54;100540.81;;;21.50;44.89
47154;BME280;32907;41.412;2.164;2023-05-19T02:29:26;100525.66;;;21.44;44.65
47154;BME280;32907;41.412;2.164;2023-05-19T02:31:55;100605.97;;;21.98;45.13
47154;BME280;32907;41.412;2.164;2023-05-19T02:34:24;100507.44;;;21.40;45.19
47154;BME280;32907;41.412;2.164;2023-05-19T02:36:53;100387.47;;;20.61;44.80
47154;BME280;32907;41.412;2.164;2023-05-19T02:39:22;100391.84;;;20.62;44.75
47154;BME280;32907;41.412;2.164;2023-05-19T02:41:51;100508.25;;;21.40;45.19
47154;BME280;32907;41.412;2.164;2023-05-19T02:44:20;100435.16;;;20.77;44.88
47154;BME280;32907;41.412;2.164;2023-05-19T02:46:51;100505.25;;;21.42;44.71
47154;BME280;32907;41.412;2.164;2023-05-19T02:49:20;100445.53;;;20.94;44.79
47154;BME280;32907;41.412;2.164;2023-05-19T02:51:51;100342.56;;;20.26;44.65
47154;BME280;32907;41.412;2.164;2023-05-19T02:54:20;100413.97;;;20.74;44.99
47154;BME280;32907;41.412;2.164;2023-05-19T02:56:48;100508.66;;;21.34;44.74
47154;BME280;32907;41.412;2.164;2023-05-19T02:59:18;100353.88;;;20.33;45.04
47154;BME280;32907;41.412;2.164;2023-05-19T03:01:53;100506.63;;;21.39;44.82
47154;BME280;32907;41.412;2.164;2023-05-19T03:04:26;100343.00;;;20.33;45.07
47154;BME280;32907;41.412;2.164;2023-05-19T03:09:55;100441.66;;;20.81;44.57
47154;BME280;32907;41.412;2.164;2023-05-19T03:12:24;100625.56;;;21.87;44.78
47154;BME280;32907;41.412;2.164;2023-05-19T03:14:52;100475.53;;;21.08;44.55
47154;BME280;32907;41.412;2.164;2023-05-19T03:17:21;100398.66;;;20.46;44.62
47154;BME280;32907;41.412;2.164;2023-05-19T03:19:50;100333.22;;;20.13;44.58
47154;BME280;32907;41.412;2.164;2023-05-19T03:22:18;100447.91;;;20.82;44.60
47154;BME280;32907;41.412;2.164;2023-05-19T03:24:47;100454.34;;;20.72;44.69
47154;BME280;32907;41.412;2.164;2023-05-19T03:27:17;100359.88;;;20.16;44.83
47154;BME280;32907;41.412;2.164;2023-05-19T03:29:46;100416.38;;;20.62;44.82
47154;BME280;32907;41.412;2.164;2023-05-19T03:32:17;100386.66;;;20.47;44.61
47154;BME280;32907;41.412;2.164;2023-05-19T03:34:46;100343.53;;;20.16;44.42
47154;BME280;32907;41.412;2.164;2023-05-19T03:37:15;100386.78;;;20.55;44.93
47154;BME280;32907;41.412;2.164;2023-05-19T03:39:43;100318.22;;;20.16;44.76
47154;BME280;32907;41.412;2.164;2023-05-19T03:42:12;100518.28;;;21.45;44.80
47154;BME280;32907;41.412;2.164;2023-05-19T03:44:41;100345.03;;;20.41;44.73
47154;BME280;32907;41.412;2.164;2023-05-19T03:47:16;100415.63;;;20.89;44.84
47154;BME280;32907;41.412;2.164;2023-05-19T03:50:12;100320.84;;;20.21;44.20
47154;BME280;32907;41.412;2.164;2023-05-19T03:52:53;100479.31;;;21.26;44.37
47154;BME280;32907;41.412;2.164;2023-05-19T03:55:31;100415.00;;;20.78;44.10
47154;BME280;32907;41.412;2.164;2023-05-19T03:58:03;100385.16;;;20.54;44.24
47154;BME280;32907;41.412;2.164;2023-05-19T04:00:36;100308.81;;;20.08;44.22
47154;BME280;32907;41.412;2.164;2023-05-19T04:03:11;100556.41;;;21.77;44.23
47154;BME280;32907;41.412;2.164;2023-05-19T04:05:40;100482.50;;;21.14;44.21
47154;BME280;32907;41.412;2.164;2023-05-19T04:08:09;100570.66;;;21.74;43.83
47154;BME280;32907;41.412;2.164;2023-05-19T04:10:37;100339.59;;;20.41;43.84
47154;BME280;32907;41.412;2.164;2023-05-19T04:13:11;100540.22;;;21.67;44.15
47154;BME280;32907;41.412;2.164;2023-05-19T04:15:40;100304.91;;;20.14;44.05
47154;BME280;32907;41.412;2.164;2023-05-19T04:18:09;100305.34;;;20.02;43.95
47154;BME280;32907;41.412;2.164;2023-05-19T04:20:42;100442.31;;;21.06;43.89
47154;BME280;32907;41.412;2.164;2023-05-19T04:23:14;100260.38;;;19.91;44.22
47154;BME280;32907;41.412;2.164;2023-05-19T04:25:44;100304.38;;;20.12;44.16
47154;BME280;32907;41.412;2.164;2023-05-19T04:28:16;100267.00;;;19.85;44.33
47154;BME280;32907;41.412;2.164;2023-05-19T04:33:13;100388.44;;;20.70;44.27
47154;BME280;32907;41.412;2.164;2023-05-19T04:35:42;100538.41;;;21.63;44.08
47154;BME280;32907;41.412;2.164;2023-05-19T04:38:12;100475.88;;;21.20;43.82
47154;BME280;32907;41.412;2.164;2023-05-19T04:40:47;100417.63;;;20.83;44.08
47154;BME280;32907;41.412;2.164;2023-05-19T04:43:18;100330.22;;;20.15;44.31
47154;BME280;32907;41.412;2.164;2023-05-19T04:45:48;100460.47;;;20.97;43.88
47154;BME280;32907;41.412;2.164;2023-05-19T04:48:20;100297.00;;;19.99;44.03
47154;BME280;32907;41.412;2.164;2023-05-19T04:50:50;100316.06;;;20.12;44.55
47154;BME280;32907;41.412;2.164;2023-05-19T04:53:19;100407.72;;;20.74;44.06
47154;BME280;32907;41.412;2.164;2023-05-19T04:55:49;100326.22;;;20.26;43.98
47154;BME280;32907;41.412;2.164;2023-05-19T04:58:18;100315.38;;;20.07;44.21
47154;BME280;32907;41.412;2.164;2023-05-19T05:00:57;100372.13;;;20.51;43.85
47154;BME280;32907;41.412;2.164;2023-05-19T05:03:28;100408.50;;;20.74;44.16
47154;BME280;32907;41.412;2.164;2023-05-19T05:05:58;100301.03;;;20.01;44.14
47154;BME280;32907;41.412;2.164;2023-05-19T05:08:27;100480.81;;;21.18;44.31
47154;BME280;32907;41.412;2.164;2023-05-19T05:10:57;100383.06;;;20.65;44.74
47154;BME280;32907;41.412;2.164;2023-05-19T05:13:26;100399.34;;;20.70;44.63
47154;BME280;32907;41.412;2.164;2023-05-19T05:15:55;100266.53;;;19.97;44.24
47154;BME280;32907;41.412;2.164;2023-05-19T05:18:25;100295.41;;;20.11;44.65
47154;BME280;32907;41.412;2.164;2023-05-19T05:20:55;100298.66;;;20.14;44.48
47154;BME280;32907;41.412;2.164;2023-05-19T05:23:24;100558.81;;;21.79;44.28
47154;BME280;32907;41.412;2.164;2023-05-19T05:25:59;100561.88;;;21.77;44.27
47154;BME280;32907;41.412;2.164;2023-05-19T05:28:37;100463.03;;;21.20;44.13
47154;BME280;32907;41.412;2.164;2023-05-19T05:31:06;100308.47;;;20.28;44.15
47154;BME280;32907;41.412;2.164;2023-05-19T05:33:37;100344.84;;;20.37;43.91
47154;BME280;32907;41.412;2.164;2023-05-19T05:36:06;100308.44;;;20.15;43.90
47154;BME280;32907;41.412;2.164;2023-05-19T05:38:36;100440.88;;;21.08;43.97
47154;BME280;32907;41.412;2.164;2023-05-19T05:41:05;100447.38;;;21.12;44.14
47154;BME280;32907;41.412;2.164;2023-05-19T05:43:37;100386.09;;;20.63;43.74
47154;BME280;32907;41.412;2.164;2023-05-19T05:46:07;100419.84;;;20.81;44.50
47154;BME280;32907;41.412;2.164;2023-05-19T05:48:36;100384.00;;;20.74;44.09
47154;BME280;32907;41.412;2.164;2023-05-19T05:51:09;100394.63;;;20.89;44.10
47154;BME280;32907;41.412;2.164;2023-05-19T05:53:40;100337.63;;;20.47;43.94
47154;BME280;32907;41.412;2.164;2023-05-19T05:56:14;100365.22;;;20.73;44.32
47154;BME280;32907;41.412;2.164;2023-05-19T05:58:51;100549.84;;;21.78;44.31
47154;BME280;32907;41.412;2.164;2023-05-19T06:01:22;100285.84;;;20.14;44.44
47154;BME280;32907;41.412;2.164;2023-05-19T06:03:53;100387.84;;;20.73;43.97
47154;BME280;32907;41.412;2.164;2023-05-19T06:06:23;100301.38;;;20.14;44.49
47154;BME280;32907;41.412;2.164;2023-05-19T06:08:52;100442.72;;;21.13;44.35
47154;BME280;32907;41.412;2.164;2023-05-19T06:11:24;100521.53;;;21.61;44.20
47154;BME280;32907;41.412;2.164;2023-05-19T06:13:54;100391.97;;;20.84;44.82
47154;BME280;32907;41.412;2.164;2023-05-19T06:16:43;100247.91;;;20.04;44.35
47154;BME280;32907;41.412;2.164;2023-05-19T06:19:11;100464.00;;;21.30;44.29
47154;BME280;32907;41.412;2.164;2023-05-19T06:21:40;100334.91;;;20.47;44.17
47154;BME280;32907;41.412;2.164;2023-05-19T06:24:13;100278.50;;;20.15;43.76
47154;BME280;32907;41.412;2.164;2023-05-19T06:26:42;100433.13;;;21.15;43.62
47154;BME280;32907;41.412;2.164;2023-05-19T06:29:10;100451.47;;;21.29;43.78
47154;BME280;32907;41.412;2.164;2023-05-19T06:31:41;100334.78;;;20.52;43.23
47154;BME280;32907;41.412;2.164;2023-05-19T06:34:12;100392.50;;;20.86;42.92
47154;BME280;32907;41.412;2.164;2023-05-19T06:36:46;100404.31;;;20.82;42.59
47154;BME280;32907;41.412;2.164;2023-05-19T06:39:16;100317.25;;;20.25;42.65
47154;BME280;32907;41.412;2.164;2023-05-19T06:41:48;100378.13;;;20.67;42.39
47154;BME280;32907;41.412;2.164;2023-05-19T06:44:36;100530.63;;;21.70;42.57
47154;BME280;32907;41.412;2.164;2023-05-19T06:47:09;100496.06;;;21.52;42.77
47154;BME280;32907;41.412;2.164;2023-05-19T06:49:38;100374.72;;;20.75;42.36
47154;BME280;32907;41.412;2.164;2023-05-19T06:52:07;100287.97;;;20.17;42.55
47154;BME280;32907;41.412;2.164;2023-05-19T06:54:35;100334.91;;;20.47;42.45
47154;BME280;32907;41.412;2.164;2023-05-19T06:57:04;100402.81;;;20.89;42.25
47154;BME280;32907;41.412;2.164;2023-05-19T06:59:35;100393.09;;;20.83;42.21
47154;BME280;32907;41.412;2.164;2023-05-19T07:05:25;100291.50;;;20.18;45.41
47154;BME280;32907;41.412;2.164;2023-05-19T07:07:56;100254.69;;;19.88;43.12
47154;BME280;32907;41.412;2.164;2023-05-19T07:10:28;100382.72;;;20.85;42.21
47154;BME280;32907;41.412;2.164;2023-05-19T07:12:56;100450.28;;;21.35;42.27
47154;BME280;32907;41.412;2.164;2023-05-19T07:15:30;100377.06;;;20.95;41.99
47154;BME280;32907;41.412;2.164;2023-05-19T07:18:01;100437.53;;;21.30;41.91
47154;BME280;32907;41.412;2.164;2023-05-19T07:20:41;100353.31;;;20.82;42.14
47154;BME280;32907;41.412;2.164;2023-05-19T07:23:14;100325.84;;;20.65;42.46
47154;BME280;32907;41.412;2.164;2023-05-19T07:25:47;100522.72;;;21.96;42.44
47154;BME280;32907;41.412;2.164;2023-05-19T07:28:20;100538.72;;;22.02;42.29
47154;BME280;32907;41.412;2.164;2023-05-19T07:31:13;100529.41;;;22.03;42.43
47154;BME280;32907;41.412;2.164;2023-05-19T07:33:42;100295.81;;;20.37;42.25
47154;BME280;32907;41.412;2.164;2023-05-19T07:36:16;100354.88;;;21.02;41.79
47154;BME280;32907;41.412;2.164;2023-05-19T07:38:47;100539.34;;;21.99;41.17
47154;BME280;32907;41.412;2.164;2023-05-19T07:41:16;100510.59;;;22.02;41.03
47154;BME280;32907;41.412;2.164;2023-05-19T07:43:45;100372.22;;;20.92;40.79
47154;BME280;32907;41.412;2.164;2023-05-19T07:46:16;100422.47;;;21.46;41.37
47154;BME280;32907;41.412;2.164;2023-05-19T07:48:47;100265.56;;;20.39;41.27
47154;BME280;32907;41.412;2.164;2023-05-19T07:51:16;100365.97;;;21.06;42.32
47154;BME280;32907;41.412;2.164;2023-05-19T07:53:46;100405.09;;;21.29;41.33
47154;BME280;32907;41.412;2.164;2023-05-19T07:56:15;100417.34;;;21.59;41.74
47154;BME280;32907;41.412;2.164;2023-05-19T07:58:43;100242.78;;;20.49;41.55
47154;BME280;32907;41.412;2.164;2023-05-19T08:01:17;100260.56;;;20.60;41.11
47154;BME280;32907;41.412;2.164;2023-05-19T08:03:46;100509.78;;;22.29;40.79
47154;BME280;32907;41.412;2.164;2023-05-19T08:06:27;100257.13;;;20.68;40.64
47154;BME280;32907;41.412;2.164;2023-05-19T08:12:08;100224.13;;;20.56;41.43
47154;BME280;32907;41.412;2.164;2023-05-19T08:14:40;100268.03;;;20.82;41.15
47154;BME280;32907;41.412;2.164;2023-05-19T08:17:10;100371.56;;;21.42;40.83
47154;BME280;32907;41.412;2.164;2023-05-19T08:19:42;100496.91;;;22.29;40.62
47154;BME280;32907;41.412;2.164;2023-05-19T08:22:11;100256.00;;;20.69;40.92
47154;BME280;32907;41.412;2.164;2023-05-19T08:24:51;100321.47;;;21.10;39.72
47154;BME280;32907;41.412;2.164;2023-05-19T08:27:22;100507.63;;;22.40;39.97
47154;BME280;32907;41.412;2.164;2023-05-19T08:29:58;100282.78;;;20.81;40.12
47154;BME280;32907;41.412;2.164;2023-05-19T08:32:27;100379.84;;;21.37;40.13
47154;BME280;32907;41.412;2.164;2023-05-19T08:34:56;100402.66;;;21.55;40.70
47154;BME280;32907;41.412;2.164;2023-05-19T08:37:24;100289.44;;;20.75;40.65
47154;BME280;32907;41.412;2.164;2023-05-19T08:39:54;100498.75;;;22.20;40.84
47154;BME280;32907;41.412;2.164;2023-05-19T08:42:23;100514.25;;;22.25;40.85
47154;BME280;32907;41.412;2.164;2023-05-19T08:44:54;100233.50;;;20.50;41.58
47154;BME280;32907;41.412;2.164;2023-05-19T08:47:23;100530.09;;;22.37;41.86
47154;BME280;32907;41.412;2.164;2023-05-19T08:50:02;100373.28;;;21.38;42.63
47154;BME280;32907;41.412;2.164;2023-05-19T08:57:54;100270.25;;;20.66;43.83
47154;BME280;32907;41.412;2.164;2023-05-19T09:00:23;100461.19;;;21.76;43.77
47154;BME280;32907;41.412;2.164;2023-05-19T09:02:53;100352.66;;;21.18;43.65
47154;BME280;32907;41.412;2.164;2023-05-19T09:05:37;100560.84;;;22.42;44.02
47154;BME280;32907;41.412;2.164;2023-05-19T09:08:28;100373.09;;;21.34;43.63
47154;BME280;32907;41.412;2.164;2023-05-19T09:14:04;100290.66;;;20.82;44.61
47154;BME280;32907;41.412;2.164;2023-05-19T09:16:35;100350.25;;;21.30;44.51
47154;BME280;32907;41.412;2.164;2023-05-19T09:19:04;100295.88;;;20.92;44.34
47154;BME280;32907;41.412;2.164;2023-05-19T09:21:34;100254.81;;;20.75;44.20
47154;BME280;32907;41.412;2.164;2023-05-19T09:24:04;100435.06;;;21.97;44.56
47154;BME280;32907;41.412;2.164;2023-05-19T09:47:48;100389.25;;;21.44;44.88
47154;BME280;32907;41.412;2.164;2023-05-19T09:50:23;100554.34;;;22.52;44.79
47154;BME280;32907;41.412;2.164;2023-05-19T09:59:23;100294.91;;;20.88;45.23
47154;BME280;32907;41.412;2.164;2023-05-19T10:02:02;100296.50;;;20.89;44.83
47154;BME280;32907;41.412;2.164;2023-05-19T10:04:33;100448.03;;;21.92;45.07
47154;BME280;32907;41.412;2.164;2023-05-19T10:07:03;100333.66;;;21.27;45.07
47154;BME280;32907;41.412;2.164;2023-05-19T10:09:36;100269.75;;;20.91;44.88
47154;BME280;32907;41.412;2.164;2023-05-19T10:22:13;100280.47;;;21.02;46.50
47154;BME280;32907;41.412;2.164;2023-05-19T10:24:42;100533.53;;;22.78;46.10
47154;BME280;32907;41.412;2.164;2023-05-19T10:27:12;100487.97;;;22.51;45.58
47154;BME280;32907;41.412;2.164;2023-05-19T10:29:46;100535.44;;;22.78;45.34
47154;BME280;32907;41.412;2.164;2023-05-19T10:32:22;100544.66;;;22.82;45.11
47154;BME280;32907;41.412;2.164;2023-05-19T10:40:17;100541.97;;;22.68;44.85
47154;BME280;32907;41.412;2.164;2023-05-19T10:45:40;100532.47;;;22.66;44.43
47154;BME280;32907;41.412;2.164;2023-05-19T10:48:13;100519.97;;;22.73;44.60
47154;BME280;32907;41.412;2.164;2023-05-19T10:50:43;100464.72;;;22.40;44.19
47154;BME280;32907;41.412;2.164;2023-05-19T10:53:16;100499.34;;;22.67;44.42
47154;BME280;32907;41.412;2.164;2023-05-19T10:55:55;100531.88;;;22.91;43.83
47154;BME280;32907;41.412;2.164;2023-05-19T11:01:17;100502.88;;;22.68;43.30
47154;BME280;32907;41.412;2.164;2023-05-19T11:03:49;100498.16;;;22.59;43.59
47154;BME280;32907;41.412;2.164;2023-05-19T11:08:58;100511.09;;;22.68;43.95
47154;BME280;32907;41.412;2.164;2023-05-19T11:11:52;100553.25;;;22.89;43.96
47154;BME280;32907;41.412;2.164;2023-05-19T11:14:24;100505.53;;;22.59;43.92
47154;BME280;32907;41.412;2.164;2023-05-19T11:16:57;100513.81;;;22.68;44.22
47154;BME280;32907;41.412;2.164;2023-05-19T11:19:33;100543.03;;;22.81;43.86
47154;BME280;32907;41.412;2.164;2023-05-19T11:22:09;100527.97;;;22.70;43.64
47154;BME280;32907;41.412;2.164;2023-05-19T11:24:47;100520.41;;;22.67;43.53
47154;BME280;32907;41.412;2.164;2023-05-19T11:27:20;100532.41;;;22.79;43.11
47154;BME280;32907;41.412;2.164;2023-05-19T11:29:49;100510.59;;;22.66;42.81
47154;BME280;32907;41.412;2.164;2023-05-19T11:32:25;100522.88;;;22.77;42.78
47154;BME280;32907;41.412;2.164;2023-05-19T11:34:56;100525.13;;;22.75;42.73
47154;BME280;32907;41.412;2.164;2023-05-19T11:37:25;100529.00;;;22.74;42.98
47154;BME280;32907;41.412;2.164;2023-05-19T11:39:55;100536.56;;;22.77;42.79
47154;BME280;32907;41.412;2.164;2023-05-19T11:42:26;100479.91;;;22.46;42.78
47154;BME280;32907;41.412;2.164;2023-05-19T11:44:54;100503.31;;;22.61;47.31
47154;BME280;32907;41.412;2.164;2023-05-19T11:47:22;100551.66;;;22.88;46.00
47154;BME280;32907;41.412;2.164;2023-05-19T11:49:51;100463.94;;;22.40;46.56
47154;BME280;32907;41.412;2.164;2023-05-19T11:52:24;100539.91;;;22.87;44.93
47154;BME280;32907;41.412;2.164;2023-05-19T11:54:54;100481.31;;;22.44;46.07
47154;BME280;32907;41.412;2.164;2023-05-19T11:57:23;100552.25;;;22.85;44.28
47154;BME280;32907;41.412;2.164;2023-05-19T11:59:51;100520.91;;;22.69;45.41
47154;BME280;32907;41.412;2.164;2023-05-19T12:02:24;100546.69;;;22.76;44.08
47154;BME280;32907;41.412;2.164;2023-05-19T12:04:55;100540.63;;;22.79;45.41
47154;BME280;32907;41.412;2.164;2023-05-19T12:07:24;100309.41;;;21.25;46.22
47154;BME280;32907;41.412;2.164;2023-05-19T12:09:58;100544.25;;;22.75;46.10
47154;BME280;32907;41.412;2.164;2023-05-19T12:12:28;100343.47;;;21.41;45.10
47154;BME280;32907;41.412;2.164;2023-05-19T12:15:01;100538.03;;;22.60;45.32
47154;BME280;32907;41.412;2.164;2023-05-19T12:17:34;100450.63;;;22.11;46.37
47154;BME280;32907;41.412;2.164;2023-05-19T12:20:02;100334.88;;;21.48;45.60
47154;BME280;32907;41.412;2.164;2023-05-19T12:22:32;100466.53;;;22.45;45.20
47154;BME280;32907;41.412;2.164;2023-05-19T12:25:02;100514.94;;;22.67;45.75
47154;BME280;32907;41.412;2.164;2023-05-19T12:27:38;100425.78;;;21.98;46.21
47154;BME280;32907;41.412;2.164;2023-05-19T12:30:07;100305.59;;;21.26;45.43
47154;BME280;32907;41.412;2.164;2023-05-19T12:32:36;100346.19;;;21.55;46.24
47154;BME280;32907;41.412;2.164;2023-05-19T12:35:05;100248.25;;;20.90;46.54
47154;BME280;32907;41.412;2.164;2023-05-19T12:37:33;100359.44;;;21.48;46.78
47154;BME280;32907;41.412;2.164;2023-05-19T12:40:04;100407.88;;;21.92;45.12
47154;BME280;32907;41.412;2.164;2023-05-19T12:42:32;100437.69;;;22.02;45.26
47154;BME280;32907;41.412;2.164;2023-05-19T12:45:05;100409.19;;;21.95;45.68
47154;BME280;32907;41.412;2.164;2023-05-19T12:47:36;100254.41;;;20.95;44.70
47154;BME280;32907;41.412;2.164;2023-05-19T12:50:08;100397.88;;;21.88;45.52
47154;BME280;32907;41.412;2.164;2023-05-19T12:52:46;100254.41;;;20.95;45.44
47154;BME280;32907;41.412;2.164;2023-05-19T12:55:15;100246.25;;;20.95;45.62
47154;BME280;32907;41.412;2.164;2023-05-19T12:57:47;100237.75;;;20.83;46.36
47154;BME280;32907;41.412;2.164;2023-05-19T13:00:18;100194.19;;;20.70;45.89
47154;BME280;32907;41.412;2.164;2023-05-19T13:03:02;100333.16;;;21.52;45.62
47154;BME280;32907;41.412;2.164;2023-05-19T13:05:38;100298.50;;;21.25;45.65
47154;BME280;32907;41.412;2.164;2023-05-19T13:08:09;100304.06;;;21.47;46.19
47154;BME280;32907;41.412;2.164;2023-05-19T13:10:39;100471.09;;;22.72;49.29
47154;BME280;32907;41.412;2.164;2023-05-19T13:13:25;100445.97;;;22.70;47.66
47154;BME280;32907;41.412;2.164;2023-05-19T13:16:13;100461.28;;;22.93;44.83
47154;BME280;32907;41.412;2.164;2023-05-19T13:19:00;100460.94;;;22.86;44.41
47154;BME280;32907;41.412;2.164;2023-05-19T13:21:46;100454.91;;;22.84;44.06
47154;BME280;32907;41.412;2.164;2023-05-19T13:24:14;100347.06;;;22.14;44.02
47154;BME280;32907;41.412;2.164;2023-05-19T13:26:42;100450.41;;;22.79;44.08
47154;BME280;32907;41.412;2.164;2023-05-19T13:29:10;100436.47;;;22.67;43.88
47154;BME280;32907;41.412;2.164;2023-05-19T13:31:38;100383.88;;;22.39;44.19
47154;BME280;32907;41.412;2.164;2023-05-19T13:34:07;100397.28;;;22.49;43.31
47154;BME280;32907;41.412;2.164;2023-05-19T13:36:34;100427.53;;;22.75;42.91
47154;BME280;32907;41.412;2.164;2023-05-19T13:39:03;100441.78;;;22.86;43.06
47154;BME280;32907;41.412;2.164;2023-05-19T13:41:30;100394.00;;;22.61;43.13
47154;BME280;32907;41.412;2.164;2023-05-19T13:43:59;100398.84;;;22.64;42.96
47154;BME280;32907;41.412;2.164;2023-05-19T13:46:27;100425.28;;;22.77;43.12
47154;BME280;32907;41.412;2.164;2023-05-19T13:49:14;100427.56;;;22.84;42.80
47154;BME280;32907;41.412;2.164;2023-05-19T13:51:42;100429.34;;;22.80;42.56
47154;BME280;32907;41.412;2.164;2023-05-19T13:54:10;100428.81;;;22.78;42.77
47154;BME280;32907;41.412;2.164;2023-05-19T13:56:38;100223.44;;;21.41;43.13
47154;BME280;32907;41.412;2.164;2023-05-19T13:59:06;100427.09;;;22.82;42.72
47154;BME280;32907;41.412;2.164;2023-05-19T14:01:34;100338.19;;;22.31;42.81
47154;BME280;32907;41.412;2.164;2023-05-19T14:04:02;100376.78;;;22.60;43.03
47154;BME280;32907;41.412;2.164;2023-05-19T14:06:31;100284.59;;;21.99;42.81
47154;BME280;32907;41.412;2.164;2023-05-19T14:08:59;100435.09;;;23.01;42.28
47154;BME280;32907;41.412;2.164;2023-05-19T14:11:27;100274.59;;;21.94;41.24
47154;BME280;32907;41.412;2.164;2023-05-19T14:13:55;100282.94;;;22.12;42.26
47154;BME280;32907;41.412;2.164;2023-05-19T14:16:24;100424.69;;;23.03;42.78
47154;BME280;32907;41.412;2.164;2023-05-19T14:18:53;100390.25;;;22.79;43.01
47154;BME280;32907;41.412;2.164;2023-05-19T14:21:21;100275.13;;;22.19;40.94
47154;BME280;32907;41.412;2.164;2023-05-19T14:23:49;100322.41;;;22.50;39.82
47154;BME280;32907;41.412;2.164;2023-05-19T14:26:17;100297.22;;;22.31;40.83
47154;BME280;32907;41.412;2.164;2023-05-19T14:28:46;100339.03;;;22.63;40.06
47154;BME280;32907;41.412;2.164;2023-05-19T14:31:14;100429.56;;;23.14;40.59
47154;BME280;32907;41.412;2.164;2023-05-19T14:33:42;100416.34;;;23.16;40.54
47154;BME280;32907;41.412;2.164;2023-05-19T14:36:10;100383.63;;;22.94;40.52
47154;BME280;32907;41.412;2.164;2023-05-19T14:38:38;100381.91;;;22.84;40.02